Main page
METAR-TAF:

METAR-TAF

Airports :

Islay, Scotland

Islay Airport

latitude: 55-40-55N, longitude: 006-15-24W, elevation: 16 m

Current weather observation

The report was made 31 minutes ago, at 06:50 UTC
Wind 19 kt from the West
Temperature 13°C
Humidity 82%
Pressure 1008 hPa
Visibility 10 km or more

METAR: EGPI 190650Z AUTO 28019KT 9999 BKN046/// 13/10 Q1008

Time: 08:21 (07:21 UTC)

Forecast

The report was made 2 hours and 25 minutes ago, at 04:56 UTC
Forecast valid from 19 at 06 UTC to 19 at 15 UTC
Wind 15 kt from the West
Visibility 10 km or more
Scattered clouds at a height of 3500 ft
Temporary
from 19 at 06 UTC to 19 at 08 UTC
Wind 18 kt from the West with gusts up to 28 kt
Probability 40% :
Temporary
from 19 at 06 UTC to 19 at 15 UTC
Visibility: 7000 m
rain showers
Becoming
from 19 at 08 UTC to 19 at 11 UTC
Wind 22 kt from the West with gusts up to 32 kt

TAF: EGPI 190456Z 1906/1915 28015KT 9999 SCT035 TEMPO 1906/1908 28018G28KT PROB40 TEMPO 1906/1915 7000 SHRA BECMG 1908/1911 28022G32KT

Weather observations and forecasts of more than 4000 airports (METAR and TAF reports).

The available stations are represented by yellow and red dots on the map.

Hover mouse over dot to see the name of the station.

Then click to see weather observations and forecasts.

To change the map : click on the green buttons with a black cross to zoom in, on the green button with a dash to zoom out, or on the green arrows for adjacent maps.


METAR-TAF: